Mc Clellan-Palomar Airport
KCRQ : now visible

Airfield :











YOU CAN JOIN US ON...

 
LOGIN :

Register | Disclaimer

   EN    FR    IT 

 









Legend :    VFR   Marginal VFR   IFR   Intensive IFR   Very Intensive IFR
Visi :
Ceiling :
>= 8 km
>= 3000ft
5 to 8 km
1000 to 3000 ft
1500m to 5 km
500 to 1000 ft
800 to 1500m
200 to 500 ft
< 800m
< 200 ft
Symbols :   Thunderstorms  Fog  Heavy snow  Heavy precipitations  Wind > 20 kt







- Airport Elevation : 331 ft


KCRQ - Mc Clellan-Palomar

CURRENT METAR :
  • 260153Z 27004KT 10SM CLR 25/18 A2991 RMK AO2 SLP125 T02500178

EXPIRED METARs :
  • 260053Z 26005KT 8SM CLR 26/19 A2992 RMK AO2 SLP126 T02560189
  • 252353Z VRB04KT 10SM CLR 26/18 A2992 RMK AO2 SLP127 T02610183 10289 20256 56008

TAF KCRQ
Valid from the 26 at 00:00 until the 27 at 00:00 UTC


252321Z 2600/2624 VRB04KT P6SM BKN150
FM261200 VRB04KT P6SM SCT006 BKN150
FM261600 VRB04KT P6SM FEW008 SCT150
FM262000 25008KT P6SM SKC
No reported NOTAMs for that airfield.



MET'MAP, your aeronautical weather chart ! - Copyright ORBIFLY December 2007 - Disclaimer

ORBIFLY MET'MAP TEAM :

Programming & Development : Alexandra Zaïnal
Concept & Development : Baudouin d'Aumeries
Co-Development & Prog : Marc-Olivier Méhu
Technical & hardware support : Manuel Goepfert

Contact : metmap@orbifly.com




SOURCES & CREDITS :

   NOAA       Earth
Advisory